Time;durP1;ratioP1;P1;durP2;ratioP2;P2;SDS_P1;SDS_P2;PMS_P1;PMS_P2;Temp;Humidity;BMP_temperature;BMP_pressure;BME280_temperature;BME280_humidity;BME280_pressure;Samples;Min_cycle;Max_cycle;Signal;HPM_P1;HPM_P2
2022/07/14 00:00:25;;;;;;;0.40;0.30;;;22.80;70.50;;;;;;5029540;28;20535;-71
2022/07/14 00:02:50;;;;;;;0.40;0.30;;;22.70;72.80;;;;;;5014577;28;20416;-70
2022/07/14 00:05:16;;;;;;;0.40;0.20;;;22.70;72.50;;;;;;5030335;28;20415;-70
2022/07/14 00:07:42;;;;;;;0.40;0.20;;;22.70;72.80;;;;;;5028257;28;21175;-70
2022/07/14 00:10:08;;;;;;;0.40;0.20;;;22.70;71.30;;;;;;5025392;28;20399;-70
2022/07/14 00:12:34;;;;;;;0.40;0.30;;;22.70;70.40;;;;;;5022582;28;20477;-70
2022/07/14 00:14:59;;;;;;;0.40;0.20;;;22.60;72.30;;;;;;5032111;28;20942;-69
2022/07/14 00:17:25;;;;;;;0.40;0.30;;;22.60;72.50;;;;;;5014328;28;20388;-72
2022/07/14 00:19:50;;;;;;;0.40;0.20;;;22.50;73.10;;;;;;5015256;28;20398;-70
2022/07/14 00:22:16;;;;;;;0.50;0.40;;;22.50;72.10;;;;;;5021050;28;20399;-70
2022/07/14 00:24:42;;;;;;;0.40;0.30;;;22.40;72.80;;;;;;5022948;28;20463;-70
2022/07/14 00:27:07;;;;;;;0.40;0.20;;;22.40;74.30;;;;;;5015982;28;20902;-70
2022/07/14 00:29:35;;;;;;;0.40;0.20;;;22.40;73.30;;;;;;5019800;28;20392;-70
2022/07/14 00:32:02;;;;;;;0.40;0.20;;;22.30;74.00;;;;;;5012218;28;20676;-70
2022/07/14 00:34:28;;;;;;;0.40;0.30;;;22.40;74.90;;;;;;5012618;28;20805;-71
2022/07/14 00:36:53;;;;;;;0.40;0.30;;;22.30;74.20;;;;;;5012037;28;20459;-70
2022/07/14 00:39:19;;;;;;;0.40;0.30;;;22.30;74.00;;;;;;5012909;28;20393;-70
2022/07/14 00:41:45;;;;;;;0.40;0.20;;;22.40;75.20;;;;;;5027356;28;20470;-70
2022/07/14 00:44:10;;;;;;;0.45;0.30;;;22.30;74.60;;;;;;5031111;28;20407;-70
2022/07/14 00:46:39;;;;;;;0.40;0.20;;;22.30;74.40;;;;;;5009456;28;20419;-70
2022/07/14 00:49:05;;;;;;;0.40;0.20;;;22.30;76.10;;;;;;5021834;28;20398;-70
2022/07/14 00:51:30;;;;;;;0.40;0.30;;;22.30;76.60;;;;;;5030589;28;20394;-71
2022/07/14 00:53:56;;;;;;;0.40;0.30;;;22.30;73.90;;;;;;5026153;28;20399;-70
2022/07/14 00:56:33;;;;;;;0.40;0.20;;;22.30;77.50;;;;;;5018219;28;20488;-70
2022/07/14 00:59:02;;;;;;;0.40;0.30;;;22.20;78.20;;;;;;5031094;28;20423;-70
2022/07/14 01:01:31;;;;;;;0.40;0.20;;;22.10;77.40;;;;;;5025131;28;20495;-71
2022/07/14 01:03:56;;;;;;;0.40;0.30;;;22.10;77.10;;;;;;5011471;28;20916;-71
2022/07/14 01:06:22;;;;;;;0.40;0.30;;;22.10;75.80;;;;;;5027971;28;20402;-71
2022/07/14 01:08:48;;;;;;;0.40;0.20;;;22.10;78.80;;;;;;5013543;28;20472;-71
2022/07/14 01:11:13;;;;;;;0.40;0.20;;;22.00;77.70;;;;;;5027089;28;20787;-71
2022/07/14 01:13:39;;;;;;;0.40;0.30;;;21.90;76.90;;;;;;5014373;28;20392;-71
2022/07/14 01:16:05;;;;;;;0.40;0.20;;;21.90;76.80;;;;;;5027604;28;20474;-70
2022/07/14 01:18:31;;;;;;;0.40;0.30;;;21.80;77.00;;;;;;5015322;28;20822;-72
2022/07/14 01:20:57;;;;;;;0.40;0.30;;;21.90;78.20;;;;;;5011788;28;20476;-71
2022/07/14 01:23:22;;;;;;;0.40;0.20;;;21.80;80.20;;;;;;5009767;28;20408;-71
2022/07/14 01:25:48;;;;;;;0.40;0.30;;;21.80;78.00;;;;;;5010333;28;20412;-71
2022/07/14 01:28:13;;;;;;;0.40;0.20;;;21.70;78.50;;;;;;5016097;28;20400;-71
2022/07/14 01:30:39;;;;;;;0.40;0.30;;;21.60;78.50;;;;;;5019445;28;20457;-71
2022/07/14 01:33:05;;;;;;;0.40;0.20;;;21.60;80.50;;;;;;5017212;28;20444;-71
2022/07/14 01:35:30;;;;;;;0.40;0.30;;;21.60;80.00;;;;;;5011417;28;20426;-71
2022/07/14 01:37:56;;;;;;;0.40;0.20;;;21.60;80.80;;;;;;5011056;28;20745;-71
2022/07/14 01:40:22;;;;;;;0.90;0.90;;;21.50;80.20;;;;;;5017659;28;20391;-70
2022/07/14 01:42:47;;;;;;;0.40;0.20;;;21.50;80.20;;;;;;5023784;28;20404;-71
2022/07/14 01:45:13;;;;;;;0.40;0.20;;;21.40;81.20;;;;;;5011114;28;20745;-70
2022/07/14 01:47:39;;;;;;;0.40;0.20;;;21.40;82.50;;;;;;5017113;28;20403;-71
2022/07/14 01:50:05;;;;;;;0.40;0.30;;;21.40;81.30;;;;;;5029638;28;20743;-71
2022/07/14 01:52:31;;;;;;;0.40;0.20;;;21.40;81.20;;;;;;5025549;28;20486;-71
2022/07/14 01:54:56;;;;;;;0.40;0.20;;;21.20;82.30;;;;;;5018962;28;20468;-71
2022/07/14 01:57:22;;;;;;;0.40;0.30;;;21.20;82.70;;;;;;5010879;28;20409;-70
2022/07/14 01:59:48;;;;;;;0.40;0.20;;;21.10;82.80;;;;;;5012065;28;20499;-71
2022/07/14 02:02:13;;;;;;;0.40;0.20;;;21.10;84.70;;;;;;5030327;28;20886;-71
2022/07/14 02:04:39;;;;;;;0.40;0.30;;;21.10;84.50;;;;;;5029466;28;20887;-71
2022/07/14 02:07:05;;;;;;;0.40;0.30;;;21.20;85.20;;;;;;5030478;28;20425;-71
2022/07/14 02:12:15;;;;;;;0.40;0.40;;;21.10;83.30;;;;;;5010523;28;20415;-71
2022/07/14 02:14:41;;;;;;;0.40;0.20;;;21.10;82.50;;;;;;5018938;28;20431;-71
2022/07/14 02:17:06;;;;;;;0.40;0.20;;;21.10;82.60;;;;;;5012769;28;20875;-70
2022/07/14 02:19:32;;;;;;;0.40;0.20;;;21.20;82.80;;;;;;5029395;28;20403;-71
2022/07/14 02:21:59;;;;;;;0.40;0.20;;;21.10;83.00;;;;;;5010921;28;20405;-71
2022/07/14 02:24:24;;;;;;;0.40;0.20;;;21.10;83.00;;;;;;5016401;28;20962;-71
2022/07/14 02:26:51;;;;;;;0.40;0.30;;;21.00;83.40;;;;;;5031288;28;20470;-70
2022/07/14 02:29:17;;;;;;;0.40;0.20;;;20.90;83.20;;;;;;5014504;28;20897;-70
2022/07/14 02:31:44;;;;;;;0.40;0.30;;;20.80;85.60;;;;;;5029774;28;20410;-70
2022/07/14 02:34:10;;;;;;;0.40;0.20;;;20.70;86.20;;;;;;5012932;28;20400;-70
2022/07/14 02:36:36;;;;;;;0.40;0.20;;;20.70;90.20;;;;;;5013058;28;20880;-71
2022/07/14 02:39:02;;;;;;;0.40;0.30;;;20.70;88.10;;;;;;5014103;28;20893;-70
2022/07/14 02:41:28;;;;;;;0.40;0.20;;;20.70;87.50;;;;;;5013993;28;20861;-70
2022/07/14 02:43:54;;;;;;;0.40;0.20;;;20.70;86.60;;;;;;5014225;28;20471;-70
2022/07/14 02:46:20;;;;;;;0.40;0.20;;;20.60;87.50;;;;;;5013967;28;20794;-70
2022/07/14 02:48:46;;;;;;;0.40;0.22;;;20.50;87.70;;;;;;5032723;28;20391;-70
2022/07/14 02:51:12;;;;;;;0.40;0.20;;;20.50;89.60;;;;;;5033559;28;20390;-70
2022/07/14 02:53:37;;;;;;;0.40;0.20;;;20.50;90.40;;;;;;5032602;28;20750;-70
2022/07/14 02:56:05;;;;;;;0.40;0.20;;;20.40;90.10;;;;;;5033737;28;20401;-70
2022/07/14 02:58:31;;;;;;;0.40;0.28;;;20.50;91.30;;;;;;5020378;28;20504;-70
2022/07/14 03:00:57;;;;;;;0.40;0.20;;;20.50;89.40;;;;;;5015026;28;20478;-70
2022/07/14 03:03:23;;;;;;;0.40;0.20;;;20.40;90.60;;;;;;5029158;28;20532;-70
2022/07/14 03:05:49;;;;;;;0.40;0.20;;;20.40;90.00;;;;;;5012949;28;20404;-70
2022/07/14 03:08:15;;;;;;;0.40;0.30;;;20.40;89.90;;;;;;5028219;28;20864;-70
2022/07/14 03:10:41;;;;;;;0.40;0.20;;;20.30;90.40;;;;;;5011084;28;20416;-71
2022/07/14 03:13:08;;;;;;;0.40;0.20;;;20.30;89.90;;;;;;5013007;28;21000;-70
2022/07/14 03:15:34;;;;;;;0.40;0.30;;;20.40;90.20;;;;;;5014388;28;20385;-71
2022/07/14 03:18:01;;;;;;;0.40;0.20;;;20.40;89.10;;;;;;5028314;28;20424;-70
2022/07/14 03:20:27;;;;;;;0.40;0.30;;;20.40;88.80;;;;;;5024417;28;20416;-70
2022/07/14 03:22:53;;;;;;;0.40;0.20;;;20.40;88.50;;;;;;5015164;28;20399;-70
2022/07/14 03:25:19;;;;;;;0.40;0.20;;;20.40;89.50;;;;;;5013435;28;20417;-71
2022/07/14 03:27:46;;;;;;;0.40;0.20;;;20.30;88.60;;;;;;5018128;28;21027;-71
2022/07/14 03:30:13;;;;;;;0.40;0.20;;;20.30;88.30;;;;;;5020648;28;20487;-70
2022/07/14 03:32:39;;;;;;;0.40;0.30;;;20.30;88.60;;;;;;5029771;28;20410;-71
2022/07/14 03:35:07;;;;;;;0.40;0.30;;;20.20;90.90;;;;;;5031810;28;20399;-71
2022/07/14 03:37:33;;;;;;;0.40;0.20;;;20.20;88.50;;;;;;5023729;28;20401;-71
2022/07/14 03:39:59;;;;;;;0.40;0.20;;;20.10;88.70;;;;;;5025486;28;20880;-70
2022/07/14 03:42:25;;;;;;;0.40;0.20;;;20.00;89.40;;;;;;5032259;28;20441;-71
2022/07/14 03:44:51;;;;;;;0.40;0.40;;;19.90;90.40;;;;;;5031826;28;20407;-71
2022/07/14 03:47:17;;;;;;;0.50;0.40;;;19.90;91.30;;;;;;5013066;28;20473;-70
2022/07/14 03:49:43;;;;;;;0.40;0.30;;;19.90;91.20;;;;;;5010763;28;20404;-71
2022/07/14 03:52:09;;;;;;;0.40;0.30;;;19.90;91.80;;;;;;5013087;28;20381;-71
2022/07/14 03:54:36;;;;;;;0.40;0.30;;;19.90;91.40;;;;;;5013244;28;20377;-71
2022/07/14 03:57:03;;;;;;;0.40;0.20;;;19.90;91.90;;;;;;5012013;28;20467;-70
2022/07/14 03:59:29;;;;;;;0.40;0.20;;;19.80;91.70;;;;;;5012425;28;20901;-71
2022/07/14 04:01:55;;;;;;;0.40;0.20;;;19.80;91.50;;;;;;5015747;28;20391;-71
2022/07/14 04:04:20;;;;;;;0.40;0.20;;;19.80;92.70;;;;;;5025344;28;20423;-71
2022/07/14 04:06:46;;;;;;;0.40;0.30;;;19.70;93.20;;;;;;5019022;28;20402;-71
2022/07/14 04:09:12;;;;;;;0.40;0.30;;;19.70;93.20;;;;;;5024204;28;20576;-70
2022/07/14 04:11:37;;;;;;;0.40;0.30;;;19.80;92.90;;;;;;5012271;28;20769;-71
2022/07/14 04:14:03;;;;;;;0.40;0.20;;;19.70;93.30;;;;;;5026176;28;20483;-70
2022/07/14 04:16:29;;;;;;;0.40;0.30;;;19.70;93.20;;;;;;5012463;28;20377;-71
2022/07/14 04:18:54;;;;;;;0.40;0.20;;;19.80;93.30;;;;;;5012897;28;20397;-71
2022/07/14 04:21:20;;;;;;;0.40;0.30;;;19.70;93.40;;;;;;5023069;28;20387;-71
2022/07/14 04:23:46;;;;;;;0.40;0.30;;;19.80;93.00;;;;;;5012468;28;20457;-71
2022/07/14 04:26:12;;;;;;;0.40;0.30;;;19.70;93.60;;;;;;5014044;28;20414;-71
2022/07/14 04:28:38;;;;;;;0.40;0.20;;;19.60;93.90;;;;;;5029720;28;20423;-71
2022/07/14 04:31:04;;;;;;;0.40;0.30;;;19.60;93.60;;;;;;5025232;28;20428;-71
2022/07/14 04:33:29;;;;;;;0.40;0.30;;;19.50;94.00;;;;;;5012130;28;20900;-71
2022/07/14 04:35:55;;;;;;;0.40;0.30;;;19.60;94.20;;;;;;5011569;28;20403;-70
2022/07/14 04:38:21;;;;;;;0.40;0.20;;;19.50;94.50;;;;;;5014139;28;20397;-70
2022/07/14 04:40:51;;;;;;;0.40;0.30;;;19.60;94.50;;;;;;5014848;28;20395;-71
2022/07/14 04:43:17;;;;;;;0.40;0.20;;;19.60;94.00;;;;;;5031596;28;20390;-71
2022/07/14 04:45:43;;;;;;;0.40;0.20;;;19.70;94.50;;;;;;5030893;28;20433;-71
2022/07/14 04:48:08;;;;;;;0.40;0.30;;;19.60;95.10;;;;;;5013024;28;20399;-70
2022/07/14 04:53:18;;;;;;;0.40;0.20;;;19.50;95.60;;;;;;5025583;28;20433;-71
2022/07/14 04:55:44;;;;;;;0.40;0.20;;;19.80;94.70;;;;;;5030570;28;20383;-71
2022/07/14 04:58:10;;;;;;;0.40;0.30;;;19.70;95.30;;;;;;5031107;28;20403;-71
2022/07/14 05:00:36;;;;;;;0.40;0.20;;;19.80;94.20;;;;;;5031040;28;20405;-70
2022/07/14 05:03:01;;;;;;;1.40;0.70;;;19.80;94.90;;;;;;5024566;28;20476;-71
2022/07/14 05:05:27;;;;;;;0.40;0.30;;;19.70;95.50;;;;;;5011275;28;20413;-71
2022/07/14 05:07:52;;;;;;;0.40;0.20;;;19.70;95.30;;;;;;5018817;28;20422;-71
2022/07/14 05:10:18;;;;;;;0.40;0.20;;;19.70;95.80;;;;;;5030715;28;20395;-71
2022/07/14 05:12:44;;;;;;;0.43;0.40;;;19.80;96.00;;;;;;5028480;28;20399;-73
2022/07/14 05:15:10;;;;;;;0.70;0.70;;;19.80;96.10;;;;;;5031196;28;20384;-71
2022/07/14 05:17:35;;;;;;;1.30;1.10;;;19.80;95.90;;;;;;5014602;28;20385;-71
2022/07/14 05:20:02;;;;;;;0.40;0.23;;;19.90;95.80;;;;;;5023766;28;20457;-72
2022/07/14 05:22:35;;;;;;;0.40;0.30;;;20.00;96.10;;;;;;5031214;28;20454;-71
2022/07/14 05:25:01;;;;;;;0.40;0.30;;;20.00;96.50;;;;;;5030015;28;20407;-71
2022/07/14 05:27:27;;;;;;;0.40;0.20;;;20.00;98.20;;;;;;5024168;28;20490;-72
2022/07/14 05:29:53;;;;;;;0.40;0.20;;;20.00;96.60;;;;;;5013602;28;20441;-73
2022/07/14 05:32:19;;;;;;;0.40;0.30;;;20.40;93.90;;;;;;5021761;28;20401;-71
2022/07/14 05:34:45;;;;;;;0.40;0.20;;;20.50;95.20;;;;;;5010943;28;20389;-72
2022/07/14 05:37:11;;;;;;;0.40;0.20;;;20.50;94.80;;;;;;5010761;28;20882;-71
2022/07/14 05:39:37;;;;;;;0.40;0.35;;;20.50;93.70;;;;;;5010866;28;20385;-71
2022/07/14 05:42:03;;;;;;;0.40;0.30;;;20.60;94.20;;;;;;5010052;28;20376;-71
2022/07/14 05:44:29;;;;;;;0.40;0.30;;;20.60;95.40;;;;;;5010785;28;20415;-71
2022/07/14 05:46:55;;;;;;;0.40;0.30;;;20.60;94.60;;;;;;5010262;28;20857;-71
2022/07/14 05:49:20;;;;;;;0.40;0.30;;;20.70;96.10;;;;;;5010964;28;20383;-71
2022/07/14 05:51:46;;;;;;;1.00;0.80;;;21.10;92.80;;;;;;5010086;28;20381;-72
2022/07/14 05:54:12;;;;;;;0.40;0.30;;;21.10;92.50;;;;;;5011205;28;20392;-71
2022/07/14 05:56:38;;;;;;;0.40;0.30;;;21.20;92.70;;;;;;5010851;28;20396;-71
2022/07/14 05:59:04;;;;;;;0.40;0.30;;;21.20;93.10;;;;;;5014706;28;20409;-71
2022/07/14 06:01:30;;;;;;;0.40;0.20;;;21.20;95.30;;;;;;5017333;28;20393;-71
2022/07/14 06:03:57;;;;;;;0.40;0.30;;;21.20;94.80;;;;;;5016286;28;20412;-71
2022/07/14 06:06:23;;;;;;;0.40;0.20;;;21.30;93.90;;;;;;5017480;28;20397;-71
2022/07/14 06:08:49;;;;;;;0.40;0.20;;;21.40;94.90;;;;;;5016580;28;20396;-71
2022/07/14 06:11:16;;;;;;;0.40;0.30;;;21.40;96.10;;;;;;5017085;28;20471;-71
2022/07/14 06:13:42;;;;;;;0.50;0.40;;;21.40;96.30;;;;;;5017231;28;20391;-72
2022/07/14 06:16:09;;;;;;;0.40;0.30;;;21.50;93.40;;;;;;5016489;28;20460;-72
2022/07/14 06:18:35;;;;;;;0.40;0.20;;;21.60;93.60;;;;;;5016918;28;20877;-71
2022/07/14 06:21:01;;;;;;;0.40;0.20;;;21.60;94.50;;;;;;5016265;28;20467;-71
2022/07/14 06:23:26;;;;;;;0.40;0.30;;;21.70;93.50;;;;;;5017519;28;20884;-71
2022/07/14 06:25:52;;;;;;;0.40;0.30;;;21.80;93.30;;;;;;5016394;28;20420;-72
2022/07/14 06:28:18;;;;;;;0.40;0.20;;;21.90;93.80;;;;;;5017445;28;20828;-71
2022/07/14 06:30:44;;;;;;;0.40;0.30;;;21.90;94.10;;;;;;5017311;28;20388;-71
2022/07/14 06:33:10;;;;;;;0.40;0.30;;;21.90;95.60;;;;;;5016503;28;20415;-71
2022/07/14 06:35:40;;;;;;;0.40;0.28;;;21.90;94.80;;;;;;5017003;28;20398;-71
2022/07/14 06:38:06;;;;;;;0.40;0.20;;;22.20;92.10;;;;;;5016384;28;20455;-72
2022/07/14 06:40:32;;;;;;;0.80;0.80;;;22.30;92.90;;;;;;5017035;28;20393;-71
2022/07/14 06:42:58;;;;;;;0.50;0.50;;;22.40;91.90;;;;;;5016289;28;20380;-71
2022/07/14 06:45:23;;;;;;;0.40;0.20;;;22.50;92.00;;;;;;5016953;28;20969;-70
2022/07/14 06:47:49;;;;;;;0.40;0.20;;;22.60;91.80;;;;;;5016444;28;20388;-70
2022/07/14 06:50:15;;;;;;;0.40;0.30;;;22.70;92.20;;;;;;5017046;28;20392;-70
2022/07/14 06:52:41;;;;;;;0.40;0.20;;;22.80;90.10;;;;;;5025673;28;20409;-70
2022/07/14 06:55:07;;;;;;;0.40;0.20;;;23.00;89.40;;;;;;5035847;28;20387;-70
2022/07/14 06:57:33;;;;;;;0.40;0.20;;;23.10;88.70;;;;;;5036561;28;20885;-70
2022/07/14 06:59:59;;;;;;;0.40;0.30;;;23.10;85.60;;;;;;5035794;28;20383;-70
2022/07/14 07:02:25;;;;;;;0.40;0.30;;;23.30;85.20;;;;;;5036722;28;20387;-70
2022/07/14 07:07:36;;;;;;;0.40;0.30;;;23.50;82.60;;;;;;5036425;28;20382;-70
2022/07/14 07:10:03;;;;;;;0.40;0.20;;;23.70;81.90;;;;;;5033317;28;20477;-70
2022/07/14 07:12:28;;;;;;;0.57;0.50;;;23.70;83.30;;;;;;5033748;28;20395;-70
2022/07/14 07:14:55;;;;;;;0.40;0.20;;;23.80;81.40;;;;;;5032581;28;20375;-70
2022/07/14 07:17:21;;;;;;;0.40;0.30;;;23.90;78.70;;;;;;5033384;28;20387;-70
2022/07/14 07:19:46;;;;;;;0.40;0.20;;;24.10;76.90;;;;;;5033060;28;20401;-70
2022/07/14 07:22:12;;;;;;;0.40;0.30;;;24.20;77.10;;;;;;5032562;28;20383;-70
2022/07/14 07:24:37;;;;;;;0.40;0.20;;;24.50;73.70;;;;;;5033206;28;20411;-70
2022/07/14 07:27:04;;;;;;;0.40;0.25;;;24.70;73.80;;;;;;5032461;28;20501;-71
2022/07/14 07:29:30;;;;;;;0.40;0.20;;;24.70;73.40;;;;;;5032949;28;20700;-71
2022/07/14 07:31:56;;;;;;;0.40;0.20;;;24.80;74.00;;;;;;5032441;28;20413;-72
2022/07/14 07:34:22;;;;;;;0.40;0.30;;;25.10;74.20;;;;;;5033103;28;20405;-70
2022/07/14 07:36:47;;;;;;;0.40;0.30;;;25.40;72.90;;;;;;5032904;28;20742;-71
2022/07/14 07:39:13;;;;;;;0.40;0.30;;;25.80;69.50;;;;;;5032263;28;20717;-70
2022/07/14 07:41:40;;;;;;;0.40;0.20;;;25.80;69.10;;;;;;5032878;28;20743;-70
2022/07/14 07:44:06;;;;;;;0.85;0.85;;;25.80;69.80;;;;;;5032051;28;20432;-71
2022/07/14 07:46:31;;;;;;;0.40;0.22;;;25.90;68.30;;;;;;5032707;28;20387;-70
2022/07/14 07:48:57;;;;;;;0.40;0.20;;;26.00;69.00;;;;;;5032120;28;20438;-70
2022/07/14 07:51:23;;;;;;;0.40;0.20;;;26.10;68.40;;;;;;5032776;28;20449;-72
2022/07/14 07:53:49;;;;;;;0.50;0.50;;;26.30;67.20;;;;;;5032718;28;20389;-71
2022/07/14 07:56:14;;;;;;;0.40;0.20;;;26.40;65.10;;;;;;5031889;28;20490;-73
2022/07/14 07:58:40;;;;;;;0.40;0.30;;;26.60;65.10;;;;;;5032689;28;20494;-71
2022/07/14 08:01:06;;;;;;;0.40;0.20;;;26.70;66.30;;;;;;5031713;28;20379;-71
2022/07/14 08:03:31;;;;;;;0.40;0.40;;;26.70;63.60;;;;;;5032596;28;20932;-72
2022/07/14 08:05:57;;;;;;;0.40;0.30;;;26.70;62.90;;;;;;5031657;28;20506;-72
2022/07/14 08:08:23;;;;;;;0.40;0.30;;;26.80;62.40;;;;;;5032559;28;20429;-72
2022/07/14 08:10:48;;;;;;;0.40;0.20;;;26.70;62.10;;;;;;5032071;28;20732;-72
2022/07/14 08:13:14;;;;;;;0.40;0.40;;;26.90;61.10;;;;;;5031373;28;20885;-71
2022/07/14 08:15:41;;;;;;;0.40;0.30;;;26.90;61.20;;;;;;5032355;28;20844;-71
2022/07/14 08:18:07;;;;;;;0.40;0.20;;;26.80;59.90;;;;;;5031599;28;20410;-71
2022/07/14 08:20:34;;;;;;;0.40;0.30;;;26.80;60.70;;;;;;5032179;28;20379;-73
2022/07/14 08:23:00;;;;;;;0.40;0.20;;;26.80;57.70;;;;;;5013636;28;20391;-72
2022/07/14 08:25:27;;;;;;;0.40;0.20;;;27.00;56.60;;;;;;5031807;28;20519;-71
2022/07/14 08:27:53;;;;;;;0.40;0.30;;;27.00;57.50;;;;;;5031525;28;20407;-72
2022/07/14 08:30:20;;;;;;;0.40;0.20;;;27.10;56.70;;;;;;5013844;28;20871;-74
2022/07/14 08:32:51;;;;;;;0.40;0.20;;;27.40;55.90;;;;;;5031990;28;20569;-71
2022/07/14 08:35:18;;;;;;;0.40;0.30;;;27.40;55.20;;;;;;5031248;28;20399;-73
2022/07/14 08:37:45;;;;;;;0.40;0.30;;;27.40;55.30;;;;;;5031924;28;20387;-72
2022/07/14 08:40:13;;;;;;;0.40;0.30;;;27.40;55.00;;;;;;5031054;28;20379;-72
2022/07/14 08:42:42;;;;;;;0.40;0.30;;;27.50;55.30;;;;;;5032036;28;20462;-72
2022/07/14 08:45:10;;;;;;;0.90;0.80;;;27.50;54.10;;;;;;5030656;28;20929;-72
2022/07/14 08:47:37;;;;;;;0.40;0.30;;;27.70;54.10;;;;;;5031560;28;20867;-70
2022/07/14 08:50:05;;;;;;;0.40;0.20;;;27.70;54.40;;;;;;5031028;28;20375;-71
2022/07/14 08:52:32;;;;;;;0.40;0.20;;;27.80;54.50;;;;;;5006481;28;20462;-71
2022/07/14 08:54:58;;;;;;;0.40;0.20;;;27.90;54.10;;;;;;5000830;28;20752;-72
2022/07/14 08:57:25;;;;;;;0.40;0.20;;;27.90;51.70;;;;;;5004048;28;20411;-71
2022/07/14 08:59:50;;;;;;;0.40;0.20;;;28.10;52.00;;;;;;5018935;28;20451;-71
2022/07/14 09:02:16;;;;;;;0.40;0.20;;;28.00;52.00;;;;;;5019250;28;20381;-71
2022/07/14 09:04:46;;;;;;;0.40;0.20;;;28.10;51.80;;;;;;5020766;28;20756;-71
2022/07/14 09:07:28;;;;;;;0.40;0.30;;;28.00;51.20;;;;;;5021500;28;20390;-72
2022/07/14 09:10:22;;;;;;;0.40;0.20;;;28.40;51.60;;;;;;5019238;28;20375;-71
2022/07/14 09:12:48;;;;;;;0.40;0.20;;;28.50;51.60;;;;;;5021944;28;20729;-71
2022/07/14 09:17:59;;;;;;;0.40;0.30;;;28.50;49.80;;;;;;5021633;28;20433;-73
2022/07/14 09:20:33;;;;;;;0.40;0.30;;;28.80;50.50;;;;;;5021349;28;20400;-72
2022/07/14 09:23:01;;;;;;;0.40;0.20;;;28.90;50.30;;;;;;5021464;28;20399;-72
2022/07/14 09:25:29;;;;;;;0.40;0.20;;;29.10;50.00;;;;;;5021482;28;20440;-71
2022/07/14 09:27:55;;;;;;;0.40;0.20;;;29.10;49.60;;;;;;5020137;28;20820;-76
2022/07/14 09:30:21;;;;;;;0.40;0.20;;;29.20;49.20;;;;;;5023342;28;20387;-76
2022/07/14 09:32:56;;;;;;;0.40;0.20;;;29.30;48.60;;;;;;5020643;28;20384;-75
2022/07/14 09:35:38;;;;;;;0.40;0.20;;;29.20;48.90;;;;;;5020311;28;20867;-73
2022/07/14 09:38:22;;;;;;;0.40;0.30;;;29.20;47.30;;;;;;5005402;28;20741;-72
2022/07/14 09:40:49;;;;;;;0.40;0.20;;;29.40;46.60;;;;;;5021523;28;20443;-77
2022/07/14 09:43:16;;;;;;;0.40;0.20;;;29.40;46.40;;;;;;5018012;28;20904;-76
2022/07/14 09:45:47;;;;;;;0.40;0.27;;;29.40;48.50;;;;;;5010999;28;20905;-76
2022/07/14 09:48:20;;;;;;;0.40;0.30;;;29.30;48.50;;;;;;5010392;28;20392;-75
2022/07/14 09:50:46;;;;;;;0.40;0.20;;;29.40;47.40;;;;;;5018392;28;20479;-74
2022/07/14 09:53:21;;;;;;;0.40;0.20;;;29.50;43.70;;;;;;5019590;28;21162;-75
2022/07/14 09:56:02;;;;;;;1.20;0.80;;;29.80;45.70;;;;;;5018466;28;20404;-76
2022/07/14 09:58:32;;;;;;;0.40;0.20;;;29.90;46.60;;;;;;5018535;28;20428;-75
2022/07/14 10:01:03;;;;;;;0.40;0.30;;;29.70;45.50;;;;;;5017210;28;21302;-75
2022/07/14 10:03:32;;;;;;;0.40;0.30;;;29.70;45.50;;;;;;5020342;28;20403;-75
2022/07/14 10:05:59;;;;;;;0.40;0.38;;;29.70;45.80;;;;;;5021855;28;20430;-76
2022/07/14 10:08:34;;;;;;;0.40;0.30;;;29.60;46.00;;;;;;5001749;28;20408;-77
2022/07/14 10:11:01;;;;;;;0.40;0.20;;;29.80;45.90;;;;;;5000183;28;20408;-78
2022/07/14 10:13:27;;;;;;;0.40;0.30;;;30.10;45.20;;;;;;5020107;28;20404;-75
2022/07/14 10:15:54;;;;;;;0.40;0.30;;;30.10;44.60;;;;;;5018476;28;20496;-75
2022/07/14 10:18:21;;;;;;;0.40;0.22;;;30.00;44.20;;;;;;5016124;28;20664;-75
2022/07/14 10:20:57;;;;;;;1.20;0.70;;;29.90;44.60;;;;;;5021296;28;20393;-73
2022/07/14 10:23:24;;;;;;;0.40;0.20;;;30.10;43.80;;;;;;5017115;28;20440;-76
2022/07/14 10:25:56;;;;;;;0.40;0.20;;;30.10;43.50;;;;;;5021425;28;20460;-76
2022/07/14 10:28:22;;;;;;;0.40;0.30;;;30.40;43.00;;;;;;5017651;28;20453;-71
2022/07/14 10:31:14;;;;;;;0.40;0.20;;;30.40;41.00;;;;;;5019502;28;20480;-77
2022/07/14 10:34:01;;;;;;;0.40;0.20;;;30.50;41.70;;;;;;5019321;28;20406;-75
2022/07/14 10:36:40;;;;;;;0.40;0.20;;;30.40;42.30;;;;;;5019144;28;20384;-76
2022/07/14 10:39:22;;;;;;;0.40;0.20;;;30.40;42.30;;;;;;5020842;28;20401;-76
2022/07/14 10:42:25;;;;;;;0.40;0.30;;;30.60;42.70;;;;;;5001673;28;20411;-76
2022/07/14 10:44:52;;;;;;;0.40;0.30;;;30.80;42.90;;;;;;5015039;28;20413;-75
2022/07/14 10:47:19;;;;;;;0.40;0.30;;;30.80;43.60;;;;;;5023255;28;20481;-76
2022/07/14 10:50:07;;;;;;;0.40;0.20;;;31.00;42.70;;;;;;5013867;28;20395;-74
2022/07/14 10:52:38;;;;;;;0.40;0.20;;;31.20;42.20;;;;;;5021950;28;20822;-75
2022/07/14 10:55:23;;;;;;;0.50;0.50;;;31.10;42.20;;;;;;5026188;28;20443;-76
2022/07/14 10:58:00;;;;;;;0.40;0.20;;;31.20;42.50;;;;;;5021241;28;20897;-70
2022/07/14 11:00:44;;;;;;;0.40;0.20;;;31.10;41.90;;;;;;5024173;28;20396;-75
2022/07/14 11:03:49;;;;;;;0.40;0.30;;;31.20;42.00;;;;;;5024417;28;20460;-76
2022/07/14 11:06:19;;;;;;;0.40;0.30;;;31.30;42.20;;;;;;4953979;28;20552;-75
2022/07/14 11:09:06;;;;;;;0.40;0.30;;;31.60;43.20;;;;;;4953194;29;20449;-75
2022/07/14 11:11:32;;;;;;;0.40;0.20;;;31.50;41.30;;;;;;4992191;28;20407;-75
2022/07/14 11:14:01;;;;;;;0.40;0.20;;;31.60;40.70;;;;;;5013787;28;20377;-74
2022/07/14 11:16:45;;;;;;;0.60;0.60;;;31.70;41.50;;;;;;5020382;28;20392;-75
2022/07/14 11:19:36;;;;;;;0.40;0.20;;;31.90;40.50;;;;;;5023894;28;20431;-75
2022/07/14 11:22:12;;;;;;;0.40;0.20;;;31.90;40.80;;;;;;5024277;28;20392;-77
2022/07/14 11:25:05;;;;;;;0.40;0.20;;;31.90;38.30;;;;;;5023732;28;20435;-74
2022/07/14 11:27:38;;;;;;;0.40;0.20;;;32.20;38.70;;;;;;5010558;28;20456;-72
2022/07/14 11:30:27;;;;;;;0.40;0.20;;;32.40;38.90;;;;;;5012729;28;20438;-75
2022/07/14 11:33:06;;;;;;;0.40;0.30;;;32.50;37.20;;;;;;5013344;28;20393;-72
2022/07/14 11:38:28;;;;;;;0.40;0.20;;;32.80;37.00;;;;;;5021395;28;20434;-75
2022/07/14 11:40:55;;;;;;;0.50;0.40;;;33.00;35.90;;;;;;5023921;28;20392;-76
2022/07/14 11:43:30;;;;;;;0.40;0.20;;;33.20;34.20;;;;;;5026427;28;20419;-74
2022/07/14 11:45:57;;;;;;;0.40;0.30;;;33.50;34.20;;;;;;5022860;28;20511;-74
2022/07/14 11:48:29;;;;;;;0.40;0.20;;;34.20;33.60;;;;;;5013000;28;20427;-72
2022/07/14 11:51:07;;;;;;;0.40;0.20;;;34.60;33.60;;;;;;5013217;28;20430;-72
2022/07/14 11:53:34;;;;;;;0.40;0.20;;;35.10;32.30;;;;;;5028921;28;20402;-77
2022/07/14 11:56:01;;;;;;;0.40;0.20;;;35.40;31.50;;;;;;5032252;28;20395;-76
2022/07/14 11:58:29;;;;;;;0.40;0.20;;;35.40;31.40;;;;;;5022625;28;20420;-73
2022/07/14 12:00:57;;;;;;;0.40;0.20;;;35.60;32.10;;;;;;5021515;28;20385;-72
2022/07/14 12:03:23;;;;;;;0.40;0.20;;;35.70;32.20;;;;;;5023129;28;20388;-74
2022/07/14 12:05:53;;;;;;;0.40;0.20;;;35.80;31.90;;;;;;5020983;28;20409;-72
2022/07/14 12:08:24;;;;;;;0.40;0.20;;;35.90;32.20;;;;;;5017737;28;20397;-69
2022/07/14 12:10:50;;;;;;;0.40;0.20;;;35.30;29.20;;;;;;5021289;28;20883;-71
2022/07/14 12:13:17;;;;;;;0.40;0.20;;;35.30;28.90;;;;;;5019501;28;20408;-75
2022/07/14 12:15:44;;;;;;;0.40;0.20;;;35.50;31.60;;;;;;5012656;28;20472;-76
2022/07/14 12:18:11;;;;;;;0.40;0.20;;;36.10;29.30;;;;;;5011484;28;20432;-75
2022/07/14 12:20:46;;;;;;;0.40;0.20;;;36.20;29.50;;;;;;5012438;28;20377;-76
2022/07/14 12:23:13;;;;;;;0.40;0.20;;;36.60;28.50;;;;;;5014785;28;20750;-74
2022/07/14 12:25:43;;;;;;;0.40;0.20;;;36.30;28.40;;;;;;5021083;28;20445;-71
2022/07/14 12:28:11;;;;;;;0.40;0.20;;;36.00;28.80;;;;;;5022323;28;20380;-75
2022/07/14 12:30:51;;;;;;;0.40;0.20;;;35.30;28.30;;;;;;5022334;28;20478;-73
2022/07/14 12:33:29;;;;;;;0.40;0.20;;;35.60;29.30;;;;;;5019155;28;20393;-74
2022/07/14 12:35:58;;;;;;;0.40;0.30;;;36.10;30.10;;;;;;5021447;28;20381;-75
2022/07/14 12:38:25;;;;;;;0.40;0.20;;;35.60;30.30;;;;;;5020100;28;21249;-74
2022/07/14 12:40:59;;;;;;;0.40;0.30;;;35.40;29.80;;;;;;5012268;28;20388;-74
2022/07/14 12:43:25;;;;;;;0.40;0.20;;;35.50;32.00;;;;;;5011444;28;21202;-74
2022/07/14 12:46:07;;;;;;;0.40;0.20;;;36.10;30.50;;;;;;5012136;28;20419;-75
2022/07/14 12:48:35;;;;;;;0.40;0.20;;;35.60;30.10;;;;;;5021903;28;20388;-75
2022/07/14 12:51:20;;;;;;;0.40;0.20;;;35.30;31.10;;;;;;5021788;28;20805;-74
2022/07/14 12:54:08;;;;;;;0.40;0.20;;;35.50;29.90;;;;;;5021529;28;20476;-76
2022/07/14 12:56:47;;;;;;;0.40;0.20;;;35.10;31.30;;;;;;5020404;28;20433;-77
2022/07/14 12:59:22;;;;;;;0.40;0.20;;;35.10;30.70;;;;;;5021279;28;20498;-73
2022/07/14 13:01:50;;;;;;;0.40;0.20;;;35.10;30.70;;;;;;5021933;28;20404;-76
2022/07/14 13:04:28;;;;;;;0.40;0.20;;;34.70;30.80;;;;;;5022023;28;20489;-75
2022/07/14 13:06:55;;;;;;;0.40;0.20;;;34.70;30.80;;;;;;5017629;28;20405;-74